sensor_id;sensor_type;location;lat;lon;timestamp;temperature;humidity
39021;DHT22;25188;51.958;5.842;2023-12-04T00:00:16;2.10;99.90
39021;DHT22;25188;51.958;5.842;2023-12-04T00:02:42;2.00;99.90
39021;DHT22;25188;51.958;5.842;2023-12-04T00:05:08;2.10;99.90
39021;DHT22;25188;51.958;5.842;2023-12-04T00:07:34;2.10;99.90
39021;DHT22;25188;51.958;5.842;2023-12-04T00:09:59;2.00;99.90
39021;DHT22;25188;51.958;5.842;2023-12-04T00:12:26;2.10;99.90
39021;DHT22;25188;51.958;5.842;2023-12-04T00:14:52;2.10;99.90
39021;DHT22;25188;51.958;5.842;2023-12-04T00:17:17;2.10;99.90
39021;DHT22;25188;51.958;5.842;2023-12-04T00:19:44;2.10;99.90
39021;DHT22;25188;51.958;5.842;2023-12-04T00:22:09;2.10;99.90
39021;DHT22;25188;51.958;5.842;2023-12-04T00:24:35;2.10;99.90
39021;DHT22;25188;51.958;5.842;2023-12-04T00:27:00;2.10;99.90
39021;DHT22;25188;51.958;5.842;2023-12-04T00:29:26;2.10;99.90
39021;DHT22;25188;51.958;5.842;2023-12-04T00:31:52;2.10;99.90
39021;DHT22;25188;51.958;5.842;2023-12-04T00:34:18;2.00;99.90
39021;DHT22;25188;51.958;5.842;2023-12-04T00:36:43;2.10;99.90
39021;DHT22;25188;51.958;5.842;2023-12-04T00:39:09;2.10;99.90
39021;DHT22;25188;51.958;5.842;2023-12-04T00:41:34;2.10;99.90
39021;DHT22;25188;51.958;5.842;2023-12-04T00:44:00;2.10;99.90
39021;DHT22;25188;51.958;5.842;2023-12-04T00:46:26;2.10;99.90
39021;DHT22;25188;51.958;5.842;2023-12-04T00:48:51;2.20;99.90
39021;DHT22;25188;51.958;5.842;2023-12-04T00:51:17;2.10;99.90
39021;DHT22;25188;51.958;5.842;2023-12-04T00:53:43;2.20;99.90
39021;DHT22;25188;51.958;5.842;2023-12-04T00:56:09;2.20;99.90
39021;DHT22;25188;51.958;5.842;2023-12-04T00:58:35;2.10;99.90
39021;DHT22;25188;51.958;5.842;2023-12-04T01:01:00;2.20;99.90
39021;DHT22;25188;51.958;5.842;2023-12-04T01:03:26;2.10;99.90
39021;DHT22;25188;51.958;5.842;2023-12-04T01:05:52;2.20;99.90
39021;DHT22;25188;51.958;5.842;2023-12-04T01:08:17;2.20;99.90
39021;DHT22;25188;51.958;5.842;2023-12-04T01:10:43;2.10;99.90
39021;DHT22;25188;51.958;5.842;2023-12-04T01:13:09;2.10;99.90
39021;DHT22;25188;51.958;5.842;2023-12-04T01:15:34;2.20;99.90
39021;DHT22;25188;51.958;5.842;2023-12-04T01:18:00;2.10;99.90
39021;DHT22;25188;51.958;5.842;2023-12-04T01:20:26;2.20;99.90
39021;DHT22;25188;51.958;5.842;2023-12-04T01:22:52;2.20;99.90
39021;DHT22;25188;51.958;5.842;2023-12-04T01:25:17;2.10;99.90
39021;DHT22;25188;51.958;5.842;2023-12-04T01:27:44;2.10;99.90
39021;DHT22;25188;51.958;5.842;2023-12-04T01:30:10;2.20;99.90
39021;DHT22;25188;51.958;5.842;2023-12-04T01:32:36;2.10;99.90
39021;DHT22;25188;51.958;5.842;2023-12-04T01:35:02;2.20;99.90
39021;DHT22;25188;51.958;5.842;2023-12-04T01:37:28;2.20;99.90
39021;DHT22;25188;51.958;5.842;2023-12-04T01:39:53;2.20;99.90
39021;DHT22;25188;51.958;5.842;2023-12-04T01:42:19;2.20;99.90
39021;DHT22;25188;51.958;5.842;2023-12-04T01:44:44;2.20;99.90
39021;DHT22;25188;51.958;5.842;2023-12-04T01:47:11;2.20;99.90
39021;DHT22;25188;51.958;5.842;2023-12-04T01:49:37;2.20;99.90
39021;DHT22;25188;51.958;5.842;2023-12-04T01:52:04;2.20;99.90
39021;DHT22;25188;51.958;5.842;2023-12-04T01:54:30;2.20;99.90
39021;DHT22;25188;51.958;5.842;2023-12-04T01:56:57;2.30;99.90
39021;DHT22;25188;51.958;5.842;2023-12-04T01:59:22;2.20;99.90
39021;DHT22;25188;51.958;5.842;2023-12-04T02:01:49;2.30;99.90
39021;DHT22;25188;51.958;5.842;2023-12-04T02:04:15;2.30;99.90
39021;DHT22;25188;51.958;5.842;2023-12-04T02:06:40;2.30;99.90
39021;DHT22;25188;51.958;5.842;2023-12-04T02:09:06;2.20;99.90
39021;DHT22;25188;51.958;5.842;2023-12-04T02:11:35;2.20;99.90
39021;DHT22;25188;51.958;5.842;2023-12-04T02:14:00;2.20;99.90
39021;DHT22;25188;51.958;5.842;2023-12-04T02:16:28;2.20;99.90
39021;DHT22;25188;51.958;5.842;2023-12-04T02:18:54;2.30;99.90
39021;DHT22;25188;51.958;5.842;2023-12-04T02:21:20;2.20;99.90
39021;DHT22;25188;51.958;5.842;2023-12-04T02:23:50;2.20;99.90
39021;DHT22;25188;51.958;5.842;2023-12-04T02:26:18;2.20;99.90
39021;DHT22;25188;51.958;5.842;2023-12-04T02:28:54;2.30;99.90
39021;DHT22;25188;51.958;5.842;2023-12-04T02:31:22;2.20;99.90
39021;DHT22;25188;51.958;5.842;2023-12-04T02:33:52;2.20;99.90
39021;DHT22;25188;51.958;5.842;2023-12-04T02:36:23;2.20;99.90
39021;DHT22;25188;51.958;5.842;2023-12-04T02:38:50;2.20;99.90
39021;DHT22;25188;51.958;5.842;2023-12-04T02:41:16;2.20;99.90
39021;DHT22;25188;51.958;5.842;2023-12-04T02:43:43;2.20;99.90
39021;DHT22;25188;51.958;5.842;2023-12-04T02:46:09;2.20;99.90
39021;DHT22;25188;51.958;5.842;2023-12-04T02:48:35;2.20;99.90
39021;DHT22;25188;51.958;5.842;2023-12-04T02:51:01;2.20;99.90
39021;DHT22;25188;51.958;5.842;2023-12-04T02:53:27;2.30;99.90
39021;DHT22;25188;51.958;5.842;2023-12-04T02:55:52;2.30;99.90
39021;DHT22;25188;51.958;5.842;2023-12-04T02:58:18;2.30;99.90
39021;DHT22;25188;51.958;5.842;2023-12-04T03:00:44;2.30;99.90
39021;DHT22;25188;51.958;5.842;2023-12-04T03:03:09;2.30;99.90
39021;DHT22;25188;51.958;5.842;2023-12-04T03:05:35;2.30;99.90
39021;DHT22;25188;51.958;5.842;2023-12-04T03:08:01;2.30;99.90
39021;DHT22;25188;51.958;5.842;2023-12-04T03:10:26;2.30;99.90
39021;DHT22;25188;51.958;5.842;2023-12-04T03:12:52;2.40;99.90
39021;DHT22;25188;51.958;5.842;2023-12-04T03:15:17;2.30;99.90
39021;DHT22;25188;51.958;5.842;2023-12-04T03:17:43;2.30;99.90
39021;DHT22;25188;51.958;5.842;2023-12-04T03:20:09;2.40;99.90
39021;DHT22;25188;51.958;5.842;2023-12-04T03:22:36;2.30;99.90
39021;DHT22;25188;51.958;5.842;2023-12-04T03:25:02;2.30;99.90
39021;DHT22;25188;51.958;5.842;2023-12-04T03:27:28;2.40;99.90
39021;DHT22;25188;51.958;5.842;2023-12-04T03:29:54;2.30;99.90
39021;DHT22;25188;51.958;5.842;2023-12-04T03:32:20;2.40;99.90
39021;DHT22;25188;51.958;5.842;2023-12-04T03:34:45;2.40;99.90
39021;DHT22;25188;51.958;5.842;2023-12-04T03:37:11;2.40;99.90
39021;DHT22;25188;51.958;5.842;2023-12-04T03:39:36;2.40;99.90
39021;DHT22;25188;51.958;5.842;2023-12-04T03:42:02;2.40;99.90
39021;DHT22;25188;51.958;5.842;2023-12-04T03:44:28;2.30;99.90
39021;DHT22;25188;51.958;5.842;2023-12-04T03:46:54;2.30;99.90
39021;DHT22;25188;51.958;5.842;2023-12-04T03:49:19;2.30;99.90
39021;DHT22;25188;51.958;5.842;2023-12-04T03:51:45;2.30;99.90
39021;DHT22;25188;51.958;5.842;2023-12-04T03:54:11;2.40;99.90
39021;DHT22;25188;51.958;5.842;2023-12-04T03:56:39;2.40;99.90
39021;DHT22;25188;51.958;5.842;2023-12-04T03:59:04;2.30;99.90
39021;DHT22;25188;51.958;5.842;2023-12-04T04:01:30;2.30;99.90
39021;DHT22;25188;51.958;5.842;2023-12-04T04:03:56;2.30;99.90
39021;DHT22;25188;51.958;5.842;2023-12-04T04:06:21;2.30;99.90
39021;DHT22;25188;51.958;5.842;2023-12-04T04:08:47;2.30;99.90
39021;DHT22;25188;51.958;5.842;2023-12-04T04:11:12;2.30;99.90
39021;DHT22;25188;51.958;5.842;2023-12-04T04:13:38;2.20;99.90
39021;DHT22;25188;51.958;5.842;2023-12-04T04:16:04;2.30;99.90
39021;DHT22;25188;51.958;5.842;2023-12-04T04:18:30;2.20;99.90
39021;DHT22;25188;51.958;5.842;2023-12-04T04:20:55;2.20;99.90
39021;DHT22;25188;51.958;5.842;2023-12-04T04:23:21;2.20;99.90
39021;DHT22;25188;51.958;5.842;2023-12-04T04:25:47;2.20;99.90
39021;DHT22;25188;51.958;5.842;2023-12-04T04:28:12;2.20;99.90
39021;DHT22;25188;51.958;5.842;2023-12-04T04:30:38;2.20;99.90
39021;DHT22;25188;51.958;5.842;2023-12-04T04:33:05;2.20;99.90
39021;DHT22;25188;51.958;5.842;2023-12-04T04:35:31;2.20;99.90
39021;DHT22;25188;51.958;5.842;2023-12-04T04:37:57;2.20;99.90
39021;DHT22;25188;51.958;5.842;2023-12-04T04:40:22;2.20;99.90
39021;DHT22;25188;51.958;5.842;2023-12-04T04:42:48;2.20;99.90
39021;DHT22;25188;51.958;5.842;2023-12-04T04:45:14;2.20;99.90
39021;DHT22;25188;51.958;5.842;2023-12-04T04:47:39;2.20;99.90
39021;DHT22;25188;51.958;5.842;2023-12-04T04:50:05;2.20;99.90
39021;DHT22;25188;51.958;5.842;2023-12-04T04:52:31;2.10;99.90
39021;DHT22;25188;51.958;5.842;2023-12-04T04:54:57;2.20;99.90
39021;DHT22;25188;51.958;5.842;2023-12-04T04:57:22;2.10;99.90
39021;DHT22;25188;51.958;5.842;2023-12-04T04:59:48;2.20;99.90
39021;DHT22;25188;51.958;5.842;2023-12-04T05:02:14;2.20;99.90
39021;DHT22;25188;51.958;5.842;2023-12-04T05:04:39;2.20;99.90
39021;DHT22;25188;51.958;5.842;2023-12-04T05:07:05;2.20;99.90
39021;DHT22;25188;51.958;5.842;2023-12-04T05:09:31;2.10;99.90
39021;DHT22;25188;51.958;5.842;2023-12-04T05:11:56;2.10;99.90
39021;DHT22;25188;51.958;5.842;2023-12-04T05:14:22;2.20;99.90
39021;DHT22;25188;51.958;5.842;2023-12-04T05:16:47;2.10;99.90
39021;DHT22;25188;51.958;5.842;2023-12-04T05:19:13;2.10;99.90
39021;DHT22;25188;51.958;5.842;2023-12-04T05:21:39;2.10;99.90
39021;DHT22;25188;51.958;5.842;2023-12-04T05:24:04;2.10;99.90
39021;DHT22;25188;51.958;5.842;2023-12-04T05:26:30;2.10;99.90
39021;DHT22;25188;51.958;5.842;2023-12-04T05:28:56;2.10;99.90
39021;DHT22;25188;51.958;5.842;2023-12-04T05:31:22;2.10;99.90
39021;DHT22;25188;51.958;5.842;2023-12-04T05:33:47;2.20;99.90
39021;DHT22;25188;51.958;5.842;2023-12-04T05:36:13;2.10;99.90
39021;DHT22;25188;51.958;5.842;2023-12-04T05:38:39;2.10;99.90
39021;DHT22;25188;51.958;5.842;2023-12-04T05:41:04;2.10;99.90
39021;DHT22;25188;51.958;5.842;2023-12-04T05:43:30;2.10;99.90
39021;DHT22;25188;51.958;5.842;2023-12-04T05:45:56;2.20;99.90
39021;DHT22;25188;51.958;5.842;2023-12-04T05:48:21;2.20;99.90
39021;DHT22;25188;51.958;5.842;2023-12-04T05:50:47;2.20;99.90
39021;DHT22;25188;51.958;5.842;2023-12-04T05:53:12;2.10;99.90
39021;DHT22;25188;51.958;5.842;2023-12-04T05:55:38;2.20;99.90
39021;DHT22;25188;51.958;5.842;2023-12-04T05:58:04;2.20;99.90
39021;DHT22;25188;51.958;5.842;2023-12-04T06:00:29;2.20;99.90
39021;DHT22;25188;51.958;5.842;2023-12-04T06:02:55;2.20;99.90
39021;DHT22;25188;51.958;5.842;2023-12-04T06:05:21;2.20;99.90
39021;DHT22;25188;51.958;5.842;2023-12-04T06:07:46;2.20;99.90
39021;DHT22;25188;51.958;5.842;2023-12-04T06:10:12;2.30;99.90
39021;DHT22;25188;51.958;5.842;2023-12-04T06:12:37;2.30;99.90
39021;DHT22;25188;51.958;5.842;2023-12-04T06:15:03;2.30;99.90
39021;DHT22;25188;51.958;5.842;2023-12-04T06:17:30;2.30;99.90
39021;DHT22;25188;51.958;5.842;2023-12-04T06:19:55;2.30;99.90
39021;DHT22;25188;51.958;5.842;2023-12-04T06:22:21;2.30;99.90
39021;DHT22;25188;51.958;5.842;2023-12-04T06:24:48;2.30;99.90
39021;DHT22;25188;51.958;5.842;2023-12-04T06:27:18;2.30;99.90
39021;DHT22;25188;51.958;5.842;2023-12-04T06:29:48;2.30;99.80
39021;DHT22;25188;51.958;5.842;2023-12-04T06:32:14;2.30;99.80
39021;DHT22;25188;51.958;5.842;2023-12-04T06:34:40;2.30;99.70
39021;DHT22;25188;51.958;5.842;2023-12-04T06:37:11;2.40;99.70
39021;DHT22;25188;51.958;5.842;2023-12-04T06:39:38;2.40;99.70
39021;DHT22;25188;51.958;5.842;2023-12-04T06:42:08;2.40;99.50
39021;DHT22;25188;51.958;5.842;2023-12-04T06:44:35;2.40;99.30
39021;DHT22;25188;51.958;5.842;2023-12-04T06:47:01;2.40;99.30
39021;DHT22;25188;51.958;5.842;2023-12-04T06:49:31;2.40;99.20
39021;DHT22;25188;51.958;5.842;2023-12-04T06:51:58;2.40;99.00
39021;DHT22;25188;51.958;5.842;2023-12-04T06:54:23;2.50;99.00
39021;DHT22;25188;51.958;5.842;2023-12-04T06:56:50;2.40;99.00
39021;DHT22;25188;51.958;5.842;2023-12-04T06:59:15;2.40;98.60
39021;DHT22;25188;51.958;5.842;2023-12-04T07:01:41;2.40;98.70
39021;DHT22;25188;51.958;5.842;2023-12-04T07:04:06;2.40;98.50
39021;DHT22;25188;51.958;5.842;2023-12-04T07:06:39;2.40;98.10
39021;DHT22;25188;51.958;5.842;2023-12-04T07:09:05;2.40;98.10
39021;DHT22;25188;51.958;5.842;2023-12-04T07:11:32;2.40;98.00
39021;DHT22;25188;51.958;5.842;2023-12-04T07:13:58;2.40;97.70
39021;DHT22;25188;51.958;5.842;2023-12-04T07:16:24;2.40;97.80
39021;DHT22;25188;51.958;5.842;2023-12-04T07:18:50;2.50;97.70
39021;DHT22;25188;51.958;5.842;2023-12-04T07:21:15;2.40;97.40
39021;DHT22;25188;51.958;5.842;2023-12-04T07:23:41;2.40;97.50
39021;DHT22;25188;51.958;5.842;2023-12-04T07:26:07;2.40;97.10
39021;DHT22;25188;51.958;5.842;2023-12-04T07:28:33;2.40;97.00
39021;DHT22;25188;51.958;5.842;2023-12-04T07:30:59;2.40;97.20
39021;DHT22;25188;51.958;5.842;2023-12-04T07:33:27;2.40;97.20
39021;DHT22;25188;51.958;5.842;2023-12-04T07:35:52;2.40;97.20
39021;DHT22;25188;51.958;5.842;2023-12-04T07:38:18;2.50;97.30
39021;DHT22;25188;51.958;5.842;2023-12-04T07:40:44;2.50;97.20
39021;DHT22;25188;51.958;5.842;2023-12-04T07:43:10;2.50;97.20
39021;DHT22;25188;51.958;5.842;2023-12-04T07:45:36;2.50;97.30
39021;DHT22;25188;51.958;5.842;2023-12-04T07:48:03;2.50;97.30
39021;DHT22;25188;51.958;5.842;2023-12-04T07:50:29;2.50;97.50
39021;DHT22;25188;51.958;5.842;2023-12-04T07:52:55;2.50;97.50
39021;DHT22;25188;51.958;5.842;2023-12-04T07:55:20;2.50;97.60
39021;DHT22;25188;51.958;5.842;2023-12-04T07:57:46;2.60;97.70
39021;DHT22;25188;51.958;5.842;2023-12-04T08:00:13;2.60;97.70
39021;DHT22;25188;51.958;5.842;2023-12-04T08:02:39;2.60;97.70
39021;DHT22;25188;51.958;5.842;2023-12-04T08:05:05;2.60;97.80
39021;DHT22;25188;51.958;5.842;2023-12-04T08:07:32;2.60;97.30
39021;DHT22;25188;51.958;5.842;2023-12-04T08:09:57;2.70;97.40
39021;DHT22;25188;51.958;5.842;2023-12-04T08:12:23;2.70;97.50
39021;DHT22;25188;51.958;5.842;2023-12-04T08:14:49;2.70;97.50
39021;DHT22;25188;51.958;5.842;2023-12-04T08:17:14;2.70;97.50
39021;DHT22;25188;51.958;5.842;2023-12-04T08:19:40;2.80;97.50
39021;DHT22;25188;51.958;5.842;2023-12-04T08:22:07;2.80;97.30
39021;DHT22;25188;51.958;5.842;2023-12-04T08:24:32;2.80;96.70
39021;DHT22;25188;51.958;5.842;2023-12-04T08:26:58;2.90;96.80
39021;DHT22;25188;51.958;5.842;2023-12-04T08:29:23;2.90;96.60
39021;DHT22;25188;51.958;5.842;2023-12-04T08:31:49;2.90;96.70
39021;DHT22;25188;51.958;5.842;2023-12-04T08:34:15;2.90;96.50
39021;DHT22;25188;51.958;5.842;2023-12-04T08:36:41;2.90;96.50
39021;DHT22;25188;51.958;5.842;2023-12-04T08:39:07;2.90;96.50
39021;DHT22;25188;51.958;5.842;2023-12-04T08:41:32;2.90;96.40
39021;DHT22;25188;51.958;5.842;2023-12-04T08:43:58;3.00;96.40
39021;DHT22;25188;51.958;5.842;2023-12-04T08:46:24;3.00;96.50
39021;DHT22;25188;51.958;5.842;2023-12-04T08:48:49;3.00;96.40
39021;DHT22;25188;51.958;5.842;2023-12-04T08:51:18;3.00;96.50
39021;DHT22;25188;51.958;5.842;2023-12-04T08:53:44;3.00;96.60
39021;DHT22;25188;51.958;5.842;2023-12-04T08:56:10;3.00;96.60
39021;DHT22;25188;51.958;5.842;2023-12-04T08:58:36;3.10;96.70
39021;DHT22;25188;51.958;5.842;2023-12-04T09:01:02;3.10;96.70
39021;DHT22;25188;51.958;5.842;2023-12-04T09:03:29;3.10;96.70
39021;DHT22;25188;51.958;5.842;2023-12-04T09:05:57;3.10;96.70
39021;DHT22;25188;51.958;5.842;2023-12-04T09:08:23;3.20;96.70
39021;DHT22;25188;51.958;5.842;2023-12-04T09:10:51;3.20;96.60
39021;DHT22;25188;51.958;5.842;2023-12-04T09:13:16;3.20;96.60
39021;DHT22;25188;51.958;5.842;2023-12-04T09:15:42;3.20;96.60
39021;DHT22;25188;51.958;5.842;2023-12-04T09:18:07;3.20;96.50
39021;DHT22;25188;51.958;5.842;2023-12-04T09:20:34;3.20;96.40
39021;DHT22;25188;51.958;5.842;2023-12-04T09:22:59;3.30;96.40
39021;DHT22;25188;51.958;5.842;2023-12-04T09:25:25;3.30;96.20
39021;DHT22;25188;51.958;5.842;2023-12-04T09:27:51;3.30;96.20
39021;DHT22;25188;51.958;5.842;2023-12-04T09:30:17;3.40;96.30
39021;DHT22;25188;51.958;5.842;2023-12-04T09:32:43;3.40;96.20
39021;DHT22;25188;51.958;5.842;2023-12-04T09:35:09;3.40;96.10
39021;DHT22;25188;51.958;5.842;2023-12-04T09:37:34;3.50;96.00
39021;DHT22;25188;51.958;5.842;2023-12-04T09:40:00;3.50;95.90
39021;DHT22;25188;51.958;5.842;2023-12-04T09:42:26;3.50;95.90
39021;DHT22;25188;51.958;5.842;2023-12-04T09:44:52;3.50;95.90
39021;DHT22;25188;51.958;5.842;2023-12-04T09:47:18;3.50;95.80
39021;DHT22;25188;51.958;5.842;2023-12-04T09:49:47;3.60;95.70
39021;DHT22;25188;51.958;5.842;2023-12-04T09:52:14;3.70;95.70
39021;DHT22;25188;51.958;5.842;2023-12-04T09:54:40;3.70;95.70
39021;DHT22;25188;51.958;5.842;2023-12-04T09:57:06;3.70;95.60
39021;DHT22;25188;51.958;5.842;2023-12-04T09:59:32;3.80;95.50
39021;DHT22;25188;51.958;5.842;2023-12-04T10:01:58;3.80;95.30
39021;DHT22;25188;51.958;5.842;2023-12-04T10:04:25;3.80;95.50
39021;DHT22;25188;51.958;5.842;2023-12-04T10:06:51;3.90;95.20
39021;DHT22;25188;51.958;5.842;2023-12-04T10:09:20;3.90;95.10
39021;DHT22;25188;51.958;5.842;2023-12-04T10:11:48;4.00;95.10
39021;DHT22;25188;51.958;5.842;2023-12-04T10:14:20;4.00;94.90
39021;DHT22;25188;51.958;5.842;2023-12-04T10:16:47;4.00;94.80
39021;DHT22;25188;51.958;5.842;2023-12-04T10:19:18;4.10;94.40
39021;DHT22;25188;51.958;5.842;2023-12-04T10:21:49;4.10;94.20
39021;DHT22;25188;51.958;5.842;2023-12-04T10:26:52;4.10;94.50
39021;DHT22;25188;51.958;5.842;2023-12-04T10:29:18;4.20;94.00
39021;DHT22;25188;51.958;5.842;2023-12-04T10:31:44;4.20;93.30
39021;DHT22;25188;51.958;5.842;2023-12-04T10:34:10;4.20;93.10
39021;DHT22;25188;51.958;5.842;2023-12-04T10:36:36;4.20;93.00
39021;DHT22;25188;51.958;5.842;2023-12-04T10:39:03;4.30;92.30
39021;DHT22;25188;51.958;5.842;2023-12-04T10:41:31;4.30;92.70
39021;DHT22;25188;51.958;5.842;2023-12-04T10:43:57;4.30;91.90
39021;DHT22;25188;51.958;5.842;2023-12-04T10:46:27;4.30;91.50
39021;DHT22;25188;51.958;5.842;2023-12-04T10:48:53;4.20;91.20
39021;DHT22;25188;51.958;5.842;2023-12-04T10:51:20;4.20;91.10
39021;DHT22;25188;51.958;5.842;2023-12-04T10:53:49;4.20;91.40
39021;DHT22;25188;51.958;5.842;2023-12-04T10:56:19;4.20;91.40
39021;DHT22;25188;51.958;5.842;2023-12-04T10:58:50;4.20;91.50
39021;DHT22;25188;51.958;5.842;2023-12-04T11:01:18;4.30;91.40
39021;DHT22;25188;51.958;5.842;2023-12-04T11:03:47;4.30;91.50
39021;DHT22;25188;51.958;5.842;2023-12-04T11:06:16;4.30;91.10
39021;DHT22;25188;51.958;5.842;2023-12-04T11:08:42;4.30;91.40
39021;DHT22;25188;51.958;5.842;2023-12-04T11:11:13;4.40;91.10
39021;DHT22;25188;51.958;5.842;2023-12-04T11:13:41;4.30;91.10
39021;DHT22;25188;51.958;5.842;2023-12-04T11:16:18;4.40;90.90
39021;DHT22;25188;51.958;5.842;2023-12-04T11:19:00;4.40;90.90
39021;DHT22;25188;51.958;5.842;2023-12-04T11:21:28;4.30;90.90
39021;DHT22;25188;51.958;5.842;2023-12-04T11:23:54;4.40;90.50
39021;DHT22;25188;51.958;5.842;2023-12-04T11:26:22;4.40;90.70
39021;DHT22;25188;51.958;5.842;2023-12-04T11:28:48;4.40;91.00
39021;DHT22;25188;51.958;5.842;2023-12-04T11:31:14;4.40;91.00
39021;DHT22;25188;51.958;5.842;2023-12-04T11:33:41;4.40;91.10
39021;DHT22;25188;51.958;5.842;2023-12-04T11:36:11;4.50;91.10
39021;DHT22;25188;51.958;5.842;2023-12-04T11:38:40;4.40;90.80
39021;DHT22;25188;51.958;5.842;2023-12-04T11:41:15;4.50;90.90
39021;DHT22;25188;51.958;5.842;2023-12-04T11:43:42;4.50;91.00
39021;DHT22;25188;51.958;5.842;2023-12-04T11:46:09;4.50;91.00
39021;DHT22;25188;51.958;5.842;2023-12-04T11:48:38;4.50;90.90
39021;DHT22;25188;51.958;5.842;2023-12-04T11:51:06;4.40;90.90
39021;DHT22;25188;51.958;5.842;2023-12-04T11:53:36;4.50;91.00
39021;DHT22;25188;51.958;5.842;2023-12-04T11:56:11;4.50;90.80
39021;DHT22;25188;51.958;5.842;2023-12-04T11:58:44;4.50;90.90
39021;DHT22;25188;51.958;5.842;2023-12-04T12:01:10;4.50;90.50
39021;DHT22;25188;51.958;5.842;2023-12-04T12:03:36;4.40;90.20
39021;DHT22;25188;51.958;5.842;2023-12-04T12:06:03;4.40;90.70
39021;DHT22;25188;51.958;5.842;2023-12-04T12:08:29;4.40;90.50
39021;DHT22;25188;51.958;5.842;2023-12-04T12:10:55;4.40;90.10
39021;DHT22;25188;51.958;5.842;2023-12-04T12:13:22;4.40;90.20
39021;DHT22;25188;51.958;5.842;2023-12-04T12:15:49;4.40;90.10
39021;DHT22;25188;51.958;5.842;2023-12-04T12:18:16;4.40;90.10
39021;DHT22;25188;51.958;5.842;2023-12-04T12:20:42;4.40;90.00
39021;DHT22;25188;51.958;5.842;2023-12-04T12:23:08;4.30;89.80
39021;DHT22;25188;51.958;5.842;2023-12-04T12:25:35;4.30;89.30
39021;DHT22;25188;51.958;5.842;2023-12-04T12:28:04;4.30;88.70
39021;DHT22;25188;51.958;5.842;2023-12-04T12:30:30;4.30;88.70
39021;DHT22;25188;51.958;5.842;2023-12-04T12:32:56;4.30;88.70
39021;DHT22;25188;51.958;5.842;2023-12-04T12:35:23;4.30;88.50
39021;DHT22;25188;51.958;5.842;2023-12-04T12:37:49;4.30;89.00
39021;DHT22;25188;51.958;5.842;2023-12-04T12:40:20;4.30;88.80
39021;DHT22;25188;51.958;5.842;2023-12-04T12:42:46;4.20;89.40
39021;DHT22;25188;51.958;5.842;2023-12-04T12:45:12;4.30;88.80
39021;DHT22;25188;51.958;5.842;2023-12-04T12:47:41;4.20;88.90
39021;DHT22;25188;51.958;5.842;2023-12-04T12:50:08;4.30;89.10
39021;DHT22;25188;51.958;5.842;2023-12-04T12:52:37;4.30;89.70
39021;DHT22;25188;51.958;5.842;2023-12-04T12:55:02;4.30;88.90
39021;DHT22;25188;51.958;5.842;2023-12-04T12:57:30;4.30;88.70
39021;DHT22;25188;51.958;5.842;2023-12-04T12:59:56;4.50;88.90
39021;DHT22;25188;51.958;5.842;2023-12-04T13:02:22;4.40;88.80
39021;DHT22;25188;51.958;5.842;2023-12-04T13:04:47;4.30;87.60
39021;DHT22;25188;51.958;5.842;2023-12-04T13:07:13;4.40;88.30
39021;DHT22;25188;51.958;5.842;2023-12-04T13:09:39;4.30;87.20
39021;DHT22;25188;51.958;5.842;2023-12-04T13:12:06;4.30;87.70
39021;DHT22;25188;51.958;5.842;2023-12-04T13:14:33;4.30;87.80
39021;DHT22;25188;51.958;5.842;2023-12-04T13:17:00;4.30;87.90
39021;DHT22;25188;51.958;5.842;2023-12-04T13:19:27;4.30;87.80
39021;DHT22;25188;51.958;5.842;2023-12-04T13:21:52;4.30;88.00
39021;DHT22;25188;51.958;5.842;2023-12-04T13:24:18;4.20;88.00
39021;DHT22;25188;51.958;5.842;2023-12-04T13:26:47;4.20;88.00
39021;DHT22;25188;51.958;5.842;2023-12-04T13:29:12;4.20;88.40
39021;DHT22;25188;51.958;5.842;2023-12-04T13:31:42;4.20;88.30
39021;DHT22;25188;51.958;5.842;2023-12-04T13:34:08;4.20;88.40
39021;DHT22;25188;51.958;5.842;2023-12-04T13:36:34;4.20;88.70
39021;DHT22;25188;51.958;5.842;2023-12-04T13:39:01;4.20;88.80
39021;DHT22;25188;51.958;5.842;2023-12-04T13:41:28;4.30;89.10
39021;DHT22;25188;51.958;5.842;2023-12-04T13:44:12;4.30;89.30
39021;DHT22;25188;51.958;5.842;2023-12-04T15:29:48;3.70;93.80
39021;DHT22;25188;51.958;5.842;2023-12-04T15:32:13;3.70;94.00
39021;DHT22;25188;51.958;5.842;2023-12-04T15:34:39;3.70;94.10
39021;DHT22;25188;51.958;5.842;2023-12-04T15:37:05;3.70;94.30
39021;DHT22;25188;51.958;5.842;2023-12-04T15:39:30;3.70;94.50
39021;DHT22;25188;51.958;5.842;2023-12-04T15:41:57;3.70;94.60
39021;DHT22;25188;51.958;5.842;2023-12-04T15:44:22;3.60;94.80
39021;DHT22;25188;51.958;5.842;2023-12-04T15:46:48;3.70;95.00
39021;DHT22;25188;51.958;5.842;2023-12-04T15:49:13;3.60;95.10
39021;DHT22;25188;51.958;5.842;2023-12-04T15:51:39;3.60;95.20
39021;DHT22;25188;51.958;5.842;2023-12-04T15:54:05;3.60;95.50
39021;DHT22;25188;51.958;5.842;2023-12-04T15:56:31;3.50;95.60
39021;DHT22;25188;51.958;5.842;2023-12-04T15:58:57;3.60;95.80
39021;DHT22;25188;51.958;5.842;2023-12-04T16:01:23;3.50;95.90
39021;DHT22;25188;51.958;5.842;2023-12-04T16:03:49;3.50;96.00
39021;DHT22;25188;51.958;5.842;2023-12-04T16:06:15;3.50;96.10
39021;DHT22;25188;51.958;5.842;2023-12-04T16:08:41;3.50;96.30
39021;DHT22;25188;51.958;5.842;2023-12-04T16:11:08;3.50;96.40
39021;DHT22;25188;51.958;5.842;2023-12-04T16:13:34;3.50;96.50
39021;DHT22;25188;51.958;5.842;2023-12-04T16:16:00;3.40;96.50
39021;DHT22;25188;51.958;5.842;2023-12-04T16:18:25;3.40;96.60
39021;DHT22;25188;51.958;5.842;2023-12-04T16:20:51;3.50;96.60
39021;DHT22;25188;51.958;5.842;2023-12-04T16:23:16;3.40;96.70
39021;DHT22;25188;51.958;5.842;2023-12-04T16:25:42;3.40;96.80
39021;DHT22;25188;51.958;5.842;2023-12-04T16:28:08;3.30;97.00
39021;DHT22;25188;51.958;5.842;2023-12-04T16:30:37;3.40;97.30
39021;DHT22;25188;51.958;5.842;2023-12-04T16:33:03;3.30;97.30
39021;DHT22;25188;51.958;5.842;2023-12-04T16:35:29;3.40;97.30
39021;DHT22;25188;51.958;5.842;2023-12-04T16:37:55;3.30;97.60
39021;DHT22;25188;51.958;5.842;2023-12-04T16:40:21;3.30;97.90
39021;DHT22;25188;51.958;5.842;2023-12-04T16:42:47;3.30;98.00
39021;DHT22;25188;51.958;5.842;2023-12-04T16:45:13;3.30;97.90
39021;DHT22;25188;51.958;5.842;2023-12-04T16:47:38;3.30;98.10
39021;DHT22;25188;51.958;5.842;2023-12-04T16:50:04;3.30;98.30
39021;DHT22;25188;51.958;5.842;2023-12-04T16:52:30;3.30;98.40
39021;DHT22;25188;51.958;5.842;2023-12-04T16:54:56;3.30;98.50
39021;DHT22;25188;51.958;5.842;2023-12-04T16:57:21;3.30;98.60
39021;DHT22;25188;51.958;5.842;2023-12-04T16:59:47;3.30;98.60
39021;DHT22;25188;51.958;5.842;2023-12-04T17:02:13;3.30;98.70
39021;DHT22;25188;51.958;5.842;2023-12-04T17:04:39;3.30;98.70
39021;DHT22;25188;51.958;5.842;2023-12-04T17:07:04;3.40;98.80
39021;DHT22;25188;51.958;5.842;2023-12-04T17:09:30;3.40;98.90
39021;DHT22;25188;51.958;5.842;2023-12-04T17:11:56;3.30;99.10
39021;DHT22;25188;51.958;5.842;2023-12-04T17:14:22;3.40;99.20
39021;DHT22;25188;51.958;5.842;2023-12-04T17:16:48;3.40;99.10
39021;DHT22;25188;51.958;5.842;2023-12-04T17:19:14;3.40;99.20
39021;DHT22;25188;51.958;5.842;2023-12-04T17:21:40;3.40;99.20
39021;DHT22;25188;51.958;5.842;2023-12-04T17:24:06;3.40;99.20